Cactus Peak, Santa Catalina Island Weather observations

Data are for 10 minute period ending at time listed.
 Day   Time   Solar   Ave.   Ave.  Ave.  Vector    Max.   Stn.    Total
  of    of     Rad.   Air    Rel.  Wind   Wind     Wind   Baro.  Precip.
Year   Day            Temp.  Hum.  Speed  Dir.     Gust   Pres.         
2014   (PST)   W/m2    F      %     mph   deg.      mph    mb.     in.  
------------------------------------------------------------------------
 208    8:10  592.0    73   74.6     6    337.0     8.4    999.0   0.00  
 208    8:20  550.0    75   69.9     4    307.3     7.2    999.0   0.00  
 208    8:30  514.0    74   72.3     5    175.7     6.6    999.0   0.00  
 208    8:40  512.0    74   70.9     4    174.2     6.0    999.0   0.00  
 208    8:50  143.0    72   74.0     6    170.4     9.0    999.0   0.00  
 208    9:00  165.0    71   76.6     4    171.2     7.2    999.0   0.00  
 208    9:10  214.0    73   73.9     4    190.6     7.8    999.0   0.00  
 208    9:20  259.0    71   77.9     5    181.9     9.0    999.0   0.00  
 208    9:30  270.0    73   74.7     4    175.7     6.6    999.0   0.00  
 208    9:40  329.0    73   74.5     3    203.1     7.2    999.0   0.00  
 208    9:50  687.0    75   70.5     4      7.3     7.8    999.0   0.00  
 208   10:00  672.0    77   67.5     5    118.1    10.8    999.0   0.00  
 208   10:10  695.0    77   67.7     6    169.2    12.5    999.0   0.00  
 208   10:20  598.0    74   72.0     6    177.4     9.0    999.0   0.00  
 208   10:30  482.0    74   71.5     8    149.5    13.1    999.0   0.00  
 208   10:40  478.0    72   76.5     9    170.6    14.9    999.0   0.00  
 208   10:50  371.0    71   78.7     6    166.9    10.2    999.0   0.00  
 208   11:00  890.0    73   76.0     9    161.2    14.3    999.0   0.00  
 208   11:10  406.0    74   73.2     5     74.8     8.4    999.0   0.00  
 208   11:20  531.0    76   70.4     4     92.1     7.2    999.0   0.00  
 208   11:30  1047.0    78   67.4     4     44.2     7.2    999.0   0.00  
 208   11:40  561.0    79   65.6     5    134.1     9.0    999.0   0.00  
 208   11:50  373.0    76   69.3     6    183.5    10.8    999.0   0.00  
 208   12:00  339.0    76   68.6     4    327.6     6.0    999.0   0.00  
 208   12:10  281.0    80   59.0     4    328.8     6.6    999.0   0.00  
 208   12:20  231.0    78   66.0     7    336.6    10.8    999.0   0.00  
 208   12:30  182.0    75   71.0     7    325.2    10.8    999.0   0.00  
 208   12:40  121.0    74   72.1     5    342.5     6.6    999.0   0.00  
 208   12:50   99.0    75   70.1     1    324.8     3.0    999.0   0.00  
 208   13:00   80.0    76   69.5     3     27.2     4.2    999.0   0.00  
 208   13:10   74.0    76   66.6     2     14.9     4.8    999.0   0.00  
 208   13:20   77.0    77   63.4     4     53.7    10.8    999.0   0.00  
 208   13:30  102.0    75   65.4     3    335.7     5.4    999.0   0.00  
 208   13:40  134.0    76   65.4     3    351.1     7.2    999.0   0.00  
 208   13:50  158.0    77   61.5     3     12.8     6.0    999.0   0.00  
 208   14:00  203.0    78   59.0     3    221.1     6.6    999.0   0.00  
 208   14:10  249.0    81   42.0     4    233.4     6.6    999.0   0.00  
 208   14:20  281.0    83   37.1     4    249.0     6.0    999.0   0.00  
 208   14:30  306.0    81   59.5     5    348.1     8.4    999.0   0.00  
 208   14:40  326.0    78   65.0     5    343.2     7.8    999.0   0.00  
 208   14:50  374.0    78   67.9     5    345.9     6.6    999.0   0.00  
 208   15:00  451.0    78   66.6     4    343.7     5.4    999.0   0.00  
 208   15:10  433.0    79   63.9     5    343.7     8.4    999.0   0.00  
 208   15:20  531.0    80   59.6     6    341.2     8.4    999.0   0.00  
 208   15:30  566.0    82   47.3     6    330.1    10.8    999.0   0.00  
 208   15:40  600.0    82   52.7     8    336.5    10.8    999.0   0.00  
 208   15:50  539.0    79   62.2    10    334.2    14.9    999.0   0.00  
 208   16:00  569.0    77   67.6    10    332.8    13.1    999.0   0.00  
 208   16:10  522.0    76   66.6     9    340.3    12.5    999.0   0.00  
 208   16:20  459.0    77   58.7     9    340.2    10.8    999.0   0.00  
 208   16:30  347.0    77   55.7     8    344.8    10.8    999.0   0.00  
 208   16:40  410.0    77   53.0     9    355.6    11.3    999.0   0.00  
 208   16:50  389.0    80   40.7     7    342.2     7.8    999.0   0.00  
 208   17:00  336.0    82   37.5     5    313.7     8.4    999.0   0.00  
 208   17:10  314.0    82   42.7     6    322.5    10.2    999.0   0.00  
 208   17:20  266.0    82   40.7     6    335.2     9.0    999.0   0.00  
 208   17:30  238.0    79   52.9     6    348.9     9.0    999.0   0.00  
 208   17:40  218.0    76   59.6     8    336.1    11.3    999.0   0.00  
 208   17:50  175.0    75   57.8    10    337.4    13.1    999.0   0.00  
 208   18:00  138.0    75   45.6    11    341.7    13.7    999.0   0.00  
 208   18:10   97.0    73   57.3    10    350.1    13.1    999.0   0.00  
 208   18:20   86.0    73   52.6     8    344.9    10.8    999.0   0.00  
 208   18:30   64.0    75   43.4    10    334.5    12.5    999.0   0.00  
 208   18:40   45.0    74   47.0    11    340.7    13.7    999.0   0.00  
 208   18:50   28.0    72   62.4    11    350.8    12.5    999.0   0.00  
 208   19:00   11.0    69   80.1    10    348.2    11.9    999.0   0.00  
 208   19:10    6.0    68   83.7    10    348.1    11.9    999.0   0.00  
 208   19:20    0.0    67   83.5    10    344.4    12.5    999.0   0.00  
 208   19:30    0.0    67   81.3    10    346.6    12.5    999.0   0.00  
 208   19:40    0.0    67   84.1    11    347.9    12.5    999.0   0.00  
 208   19:50    0.0    66   84.6    10    348.5    11.9    999.0   0.00  
 208   20:00    0.0    66   86.5    10    341.1    11.9    999.0   0.00  
 208   20:10    0.0    66   86.8     8    353.4     9.0    999.0   0.00  
 208   20:20    0.0    66   86.9     7    350.1     9.0    999.0   0.00  
 208   20:30    0.0    66   75.9     7    331.2     9.0    999.0   0.00  
 208   20:40    0.0    70   50.8     7    332.9     9.6    999.0   0.00  
 208   20:50    0.0    70   49.5     6    321.7    11.3    999.0   0.00  
 208   21:00    0.0    76   20.5     7    295.0    10.8    999.0   0.00  
 208   21:10    0.0    76   22.1     6    301.1    10.2    999.0   0.00  
 208   21:20    0.0    75   23.9     5    311.8     7.8    999.0   0.00  
 208   21:30    0.0    74   30.1     6    327.1    10.2    999.0   0.00  
 208   21:40    0.0    73   37.0     4    320.4     6.0    999.0   0.00  
 208   21:50    0.0    77   17.8     5    241.0     6.6    999.0   0.00  
 208   22:00    0.0    80   11.2     6    261.7     7.8    999.0   0.00  
 208   22:10    0.0    78   15.4     5    300.1     7.2    999.0   0.00  
 208   22:20    0.0    78   11.4     6    270.1     7.8    999.0   0.00  
 208   22:30    0.0    76   26.9     4    359.3     4.8    999.0   0.00  
 208   22:40    0.0    74   25.2     2    186.7     5.4    999.0   0.00  
 208   22:50    0.0    76   22.6     3    309.9     4.8    999.0   0.00  
 208   23:00    0.0    71   52.9     4     20.3     5.4    999.0   0.00  
 208   23:10    0.0    68   73.2     4      3.6     4.8    999.0   0.00  
 208   23:20    0.0    68   78.4     4     12.5     6.0    999.0   0.00  
 208   23:30    0.0    68   80.3     5    353.9     6.0    999.0   0.00  
 208   23:40    0.0    67   75.2     5     10.6     6.0    999.0   0.00  
 208   23:50    0.0    72   40.4     3     19.6     4.8    999.0   0.00  
 209    0:00    0.0    76   28.5     2    278.9     4.2    999.0   0.00  
 209    0:10    0.0    74   38.1     2     42.1     3.6    999.0   0.00  
 209    0:20    0.0    75   29.9     4    171.1     6.6    999.0   0.00  
 209    0:30    0.0    71   47.4     6    151.2    10.8    999.0   0.03  
 209    0:40    0.0    70   36.7     6    209.5    10.2    999.0   0.00  
 209    0:50    0.0    73   26.5     6    265.4     7.2    999.0   0.00  
 209    1:00    0.0    71   36.0     4    215.5     7.2    999.0   0.00  
 209    1:10    0.0    67   70.3     5    357.9     6.6    999.0   0.00  
 209    1:20    0.0    70   50.5     4    338.7     6.0    999.0   0.00  
 209    1:30    0.0    72   35.2     2    182.9     3.0    999.0   0.00  
 209    1:40    0.0    71   45.6     3    146.4     6.0    999.0   0.00  
 209    1:50    0.0    70   51.5     4      0.8     7.2    999.0   0.00  
 209    2:00    0.0    70   48.1     7    296.5     9.0    999.0   0.00  
 209    2:10    0.0    74   26.9     5    198.8     8.4    999.0   0.00  
 209    2:20    0.0    74   25.4     4    226.2     6.6    999.0   0.00  
 209    2:30    0.0    74   25.0     2    264.4     5.4    999.0   0.00  
 209    2:40    0.0    72   34.1     4    226.6     8.4    999.0   0.00  
 209    2:50    0.0    71   31.1     6    301.9     8.4    999.0   0.01  
 209    3:00    0.0    69   41.5     8    322.6    10.8    999.0   0.00  
 209    3:10    0.0    69   41.8     6    325.1     8.4    999.0   0.00  
 209    3:20    0.0    70   43.7     4    262.2     7.2    999.0   0.00  
 209    3:30    0.0    71   35.9     9    304.4    11.3    999.0   0.00  
 209    3:40    0.0    69   46.5     7     24.6    10.8    999.0   0.00  
 209    3:50    0.0    69   51.7     4     97.3     7.2    999.0   0.00  
 209    4:00    0.0    69   51.2     6    105.5     7.8    999.0   0.00  
 209    4:10    0.0    71   41.1     7     29.7     9.6    999.0   0.00  
 209    4:20    0.0    71   39.0     8      4.9    11.3    999.0   0.00  
 209    4:30    0.0    72   35.8     8     19.4    10.2    999.0   0.00  
 209    4:40    0.0    73   31.4     8     41.7    10.2    999.0   0.00  
 209    4:50    0.0    72   40.4     9     33.6    10.8    999.0   0.00  
 209    5:00    0.0    71   50.2     8     42.7    10.8    999.0   0.00  
 209    5:10    0.0    71   54.3     6     57.0     8.4    999.0   0.00  
 209    5:20    3.0    70   56.2     5    157.2     8.4    999.0   0.00  
 209    5:30    7.0    68   73.2     6    171.6     7.2    999.0   0.00  
 209    5:40   23.0    68   75.5     5    168.8     7.8    999.0   0.00  
 209    5:50   37.0    69   63.1     4    162.3     6.6    999.0   0.00  
 209    6:00   42.0    70   66.0     4    160.7     6.0    999.0   0.00  
 209    6:10   50.0    68   79.6     4    168.9     9.6    999.0   0.00  
 209    6:20   50.0    68   81.0     5    168.7     9.6    999.0   0.00  
 209    6:30   57.0    68   81.1     3    174.5     5.4    999.0   0.00  
 209    6:40   63.0    68   76.5     6    349.8     9.0    999.0   0.00  
 209    6:50   69.0    67   75.8     6    351.8     8.4    999.0   0.00  
 209    7:00  103.0    68   76.0     6    336.2     7.8    999.0   0.00  
 209    7:10  129.0    68   80.1     6    346.3     8.4    999.0   0.00  
 209    7:20  121.0    68   82.4     6    354.9     8.4    999.0   0.00  
 209    7:30  112.0    69   76.2     4     28.0     6.0    999.0   0.00  
 209    7:40   93.0    71   70.4     5     49.8     7.2    999.0   0.00  
 209    7:50  120.0    73   54.5     6     22.2     7.2    999.0   0.00  
 209    8:00  176.0    76   41.4     4     16.6     7.2    999.0   0.00  

Return to Cactus Peak graphs page.


Western Regional Climate Center,wrcc@dri.edu